createdAt,value
2019-02-16T00:03:00.854Z,101808.44
2019-02-16T00:05:29.634Z,101812.48
2019-02-16T00:07:58.434Z,101817.81
2019-02-16T00:10:27.203Z,101816.30
2019-02-16T00:12:55.941Z,101809.89
2019-02-16T00:15:24.624Z,101816.08
2019-02-16T00:17:53.343Z,101812.48
2019-02-16T00:20:22.383Z,101821.51
2019-02-16T00:22:51.078Z,101816.66
2019-02-16T00:27:54.554Z,101822.17
2019-02-16T00:31:03.049Z,101822.96
2019-02-16T00:33:31.911Z,101822.45
2019-02-16T00:36:00.825Z,101818.08
2019-02-16T00:38:29.520Z,101821.14
2019-02-16T00:43:50.606Z,101816.87
2019-02-16T00:46:38.510Z,101818.70
2019-02-16T00:49:07.209Z,101816.33
2019-02-16T00:51:36.014Z,101810.78
2019-02-16T00:54:04.640Z,101816.13
2019-02-16T00:56:33.331Z,101813.37
2019-02-16T00:59:01.988Z,101814.58
2019-02-16T01:01:30.772Z,101810.78
2019-02-16T01:03:59.466Z,101812.59
2019-02-16T01:06:28.228Z,101813.76
2019-02-16T01:08:57.066Z,101808.33
2019-02-16T01:11:25.798Z,101812.16
2019-02-16T01:13:54.422Z,101814.09
2019-02-16T01:16:23.211Z,101812.62
2019-02-16T01:18:51.790Z,101810.56
2019-02-16T01:21:22.791Z,101804.41
2019-02-16T01:23:50.765Z,101810.56
2019-02-16T01:26:19.537Z,101809.08
2019-02-16T01:28:48.142Z,101807.55
2019-02-16T01:31:16.781Z,101810.20
2019-02-16T01:33:45.673Z,101807.73
2019-02-16T01:36:15.882Z,101806.83
2019-02-16T01:38:44.471Z,101809.92
2019-02-16T01:41:13.385Z,101816.55
2019-02-16T01:43:42.073Z,101808.83
2019-02-16T01:46:10.688Z,101812.17
2019-02-16T01:48:39.287Z,101809.54
2019-02-16T01:51:07.926Z,101811.71
2019-02-16T01:53:36.532Z,101804.66
2019-02-16T01:56:05.176Z,101805.59
2019-02-16T01:58:33.788Z,101806.63
2019-02-16T02:01:02.477Z,101805.14
2019-02-16T02:03:31.097Z,101806.10
2019-02-16T02:05:59.734Z,101795.41
2019-02-16T02:08:28.372Z,101795.07
2019-02-16T02:10:56.993Z,101796.71
2019-02-16T02:13:25.609Z,101797.98
2019-02-16T02:15:54.242Z,101785.28
2019-02-16T02:18:22.850Z,101796.37
2019-02-16T02:20:51.463Z,101789.34
2019-02-16T02:23:20.121Z,101794.02
2019-02-16T02:25:48.958Z,101787.23
2019-02-16T02:28:19.237Z,101787.86
2019-02-16T02:30:47.960Z,101788.76
2019-02-16T02:33:16.602Z,101780.07
2019-02-16T02:35:45.233Z,101783.09
2019-02-16T02:38:13.888Z,101784.20
2019-02-16T02:40:42.497Z,101785.80
2019-02-16T02:43:11.158Z,101782.93
2019-02-16T02:45:39.777Z,101784.81
2019-02-16T02:48:08.419Z,101783.14
2019-02-16T02:50:37.044Z,101780.62
2019-02-16T02:53:05.659Z,101782.41
2019-02-16T02:55:34.281Z,101782.41
2019-02-16T02:58:02.906Z,101783.22
2019-02-16T03:00:31.542Z,101786.59
2019-02-16T03:03:00.151Z,101784.36
2019-02-16T03:05:28.851Z,101774.23
2019-02-16T03:07:57.531Z,101774.80
2019-02-16T03:10:26.140Z,101784.12
2019-02-16T03:12:54.764Z,101780.67
2019-02-16T03:15:23.389Z,101775.19
2019-02-16T03:17:51.993Z,101776.80
2019-02-16T03:20:20.675Z,101771.45
2019-02-16T03:23:12.308Z,101769.57
2019-02-16T03:25:42.170Z,101771.24
2019-02-16T03:28:31.666Z,101764.66
2019-02-16T03:31:38.794Z,101761.28
2019-02-16T03:34:45.889Z,101765.23
2019-02-16T03:37:53.026Z,101768.36
2019-02-16T03:40:21.666Z,101761.89
2019-02-16T03:42:50.309Z,101774.69
2019-02-16T03:45:18.987Z,101776.50
2019-02-16T03:47:47.670Z,101783.25
2019-02-16T03:50:16.254Z,101784.48
2019-02-16T03:52:44.881Z,101793.50
2019-02-16T03:55:13.582Z,101789.35
2019-02-16T03:57:42.329Z,101796.13
2019-02-16T04:00:11.008Z,101793.77
2019-02-16T04:02:39.627Z,101802.12
2019-02-16T04:05:08.321Z,101802.88
2019-02-16T04:07:36.946Z,101807.02
2019-02-16T04:10:05.849Z,101805.77
2019-02-16T04:12:34.481Z,101793.13
2019-02-16T04:15:03.105Z,101794.16
2019-02-16T04:17:31.719Z,101788.51
2019-02-16T04:20:00.348Z,101790.49
2019-02-16T04:22:28.980Z,101791.43
2019-02-16T04:24:57.678Z,101790.75
2019-02-16T04:27:26.312Z,101792.06
2019-02-16T04:29:54.931Z,101796.30
2019-02-16T04:32:23.558Z,101804.93
2019-02-16T04:37:26.669Z,101792.26
2019-02-16T04:39:55.370Z,101789.06
2019-02-16T04:45:38.053Z,101781.30
2019-02-16T04:48:06.696Z,101771.32
2019-02-16T04:50:35.310Z,101767.49
2019-02-16T04:53:03.944Z,101772.47
2019-02-16T04:55:32.573Z,101774.81
2019-02-16T04:58:01.183Z,101777.33
2019-02-16T05:00:29.810Z,101778.16
2019-02-16T05:02:58.504Z,101771.98
2019-02-16T05:05:46.347Z,101774.70
2019-02-16T05:08:14.944Z,101772.16
2019-02-16T05:10:43.600Z,101766.06
2019-02-16T05:13:12.206Z,101776.77
2019-02-16T05:15:40.833Z,101780.02
2019-02-16T05:18:09.462Z,101784.50
2019-02-16T05:20:38.091Z,101779.27
2019-02-16T05:23:06.721Z,101773.16
2019-02-16T05:25:35.379Z,101787.88
2019-02-16T05:28:03.999Z,101772.36
2019-02-16T05:30:32.623Z,101778.27
2019-02-16T05:33:01.255Z,101775.41
2019-02-16T05:35:29.886Z,101780.52
2019-02-16T05:37:58.517Z,101776.03
2019-02-16T05:40:27.218Z,101765.78
2019-02-16T05:42:55.853Z,101770.65
2019-02-16T05:45:24.475Z,101774.31
2019-02-16T05:47:53.106Z,101778.25
2019-02-16T05:50:21.719Z,101776.08
2019-02-16T05:52:54.460Z,101765.67
2019-02-16T05:55:20.747Z,101770.53
2019-02-16T05:57:49.410Z,101771.66
2019-02-16T06:03:07.462Z,101765.55
2019-02-16T06:05:36.127Z,101771.66
2019-02-16T06:08:04.829Z,101774.09
2019-02-16T06:10:33.473Z,101773.73
2019-02-16T06:13:02.119Z,101773.32
2019-02-16T06:15:30.753Z,101779.79
2019-02-16T06:18:18.599Z,101783.88
2019-02-16T06:20:47.224Z,101790.14
2019-02-16T06:23:15.865Z,101783.83
2019-02-16T06:25:44.517Z,101787.00
2019-02-16T06:28:13.150Z,101797.02
2019-02-16T06:30:41.789Z,101796.89
2019-02-16T06:33:10.414Z,101809.18
2019-02-16T06:35:58.053Z,101813.11
2019-02-16T06:38:26.714Z,101803.25
2019-02-16T06:40:55.427Z,101809.27
2019-02-16T06:43:24.034Z,101812.50
2019-02-16T06:45:52.682Z,101816.54
2019-02-16T06:48:21.318Z,101820.58
2019-02-16T06:50:49.930Z,101817.60
2019-02-16T06:53:18.560Z,101820.23
2019-02-16T06:56:06.177Z,101820.58
2019-02-16T06:58:34.822Z,101820.28
2019-02-16T07:01:03.434Z,101812.61
2019-02-16T07:03:32.095Z,101812.34
2019-02-16T07:06:00.766Z,101819.47
2019-02-16T07:08:29.414Z,101816.28
2019-02-16T07:10:58.042Z,101813.36
2019-02-16T07:13:26.680Z,101812.00
2019-02-16T07:16:14.313Z,101815.74
2019-02-16T07:19:02.561Z,101814.78
2019-02-16T07:21:31.356Z,101815.33
2019-02-16T07:24:00.613Z,101816.38
2019-02-16T07:29:04.055Z,101823.77
2019-02-16T07:31:33.032Z,101824.94
2019-02-16T07:34:01.933Z,101823.92
2019-02-16T07:36:30.978Z,101839.87
2019-02-16T07:38:59.740Z,101831.64
2019-02-16T07:41:28.776Z,101836.94
2019-02-16T07:44:16.529Z,101834.35
2019-02-16T07:46:51.199Z,101837.44
2019-02-16T07:49:59.887Z,101835.98
2019-02-16T07:52:38.115Z,101836.84
2019-02-16T07:55:28.230Z,101844.11
2019-02-16T07:58:09.006Z,101843.74
2019-02-16T08:00:57.054Z,101841.61
2019-02-16T08:03:44.742Z,101855.53
2019-02-16T08:06:32.413Z,101860.03
2019-02-16T08:09:20.132Z,101852.84
2019-02-16T08:12:08.117Z,101850.39
2019-02-16T08:14:55.949Z,101847.88
2019-02-16T08:17:42.757Z,101858.03
2019-02-16T08:23:15.656Z,101857.28
2019-02-16T08:25:51.414Z,101850.98
2019-02-16T08:28:39.132Z,101846.27
2019-02-16T08:31:26.845Z,101850.69
2019-02-16T08:34:14.437Z,101839.57
2019-02-16T08:37:02.052Z,101836.27
2019-02-16T08:39:49.667Z,101834.22
2019-02-16T08:42:37.330Z,101829.83
2019-02-16T08:45:25.344Z,101834.11
2019-02-16T08:48:12.978Z,101828.59
2019-02-16T08:51:00.683Z,101828.50
2019-02-16T08:53:35.768Z,101826.63
2019-02-16T08:56:23.379Z,101830.11
2019-02-16T08:59:11.014Z,101829.09
2019-02-16T09:01:58.651Z,101834.52
2019-02-16T09:04:46.285Z,101833.37
2019-02-16T09:07:33.934Z,101830.44
2019-02-16T09:10:21.567Z,101825.38
2019-02-16T09:13:09.381Z,101825.29
2019-02-16T09:15:56.994Z,101822.31
2019-02-16T09:18:31.824Z,101816.46
2019-02-16T09:21:19.506Z,101806.70
2019-02-16T09:27:15.346Z,101805.45
2019-02-16T09:32:40.702Z,101807.13
2019-02-16T09:35:28.330Z,101808.97
2019-02-16T09:38:15.992Z,101802.84
2019-02-16T09:41:03.609Z,101799.59
2019-02-16T09:43:42.034Z,101798.02
2019-02-16T09:46:29.655Z,101799.20
2019-02-16T09:49:04.911Z,101803.03
2019-02-16T09:51:48.484Z,101801.31
2019-02-16T09:54:25.129Z,101804.08
2019-02-16T09:57:12.765Z,101802.81
2019-02-16T10:00:00.413Z,101798.36
2019-02-16T10:02:48.031Z,101801.11
2019-02-16T10:05:35.669Z,101810.47
2019-02-16T10:08:23.302Z,101804.86
2019-02-16T10:11:10.943Z,101810.54
2019-02-16T10:13:58.562Z,101817.14
2019-02-16T10:16:46.229Z,101817.56
2019-02-16T10:19:33.855Z,101816.14
2019-02-16T10:22:21.571Z,101809.84
2019-02-16T10:25:09.228Z,101810.55
2019-02-16T10:27:56.837Z,101812.11
2019-02-16T10:30:33.353Z,101814.56
2019-02-16T10:33:20.947Z,101821.45
2019-02-16T10:36:08.608Z,101812.71
2019-02-16T10:38:56.670Z,101812.55
2019-02-16T10:41:44.351Z,101807.33
2019-02-16T10:44:32.156Z,101809.99
2019-02-16T10:47:19.819Z,101815.86
2019-02-16T10:50:07.447Z,101811.66
2019-02-16T10:52:55.090Z,101809.08
2019-02-16T10:55:42.725Z,101804.05
2019-02-16T10:58:30.358Z,101795.33
2019-02-16T11:01:06.730Z,101786.57
2019-02-16T11:03:54.349Z,101785.75
2019-02-16T11:06:41.980Z,101786.25
2019-02-16T11:09:29.614Z,101781.95
2019-02-16T11:12:17.331Z,101775.27
2019-02-16T11:15:00.903Z,101774.98
2019-02-16T11:17:48.533Z,101765.22
2019-02-16T11:20:36.161Z,101759.13
2019-02-16T11:23:18.028Z,101765.22
2019-02-16T11:26:05.675Z,101765.05
2019-02-16T11:28:53.302Z,101763.14
2019-02-16T11:31:40.928Z,101758.77
2019-02-16T11:34:28.550Z,101750.82
2019-02-16T11:37:16.274Z,101752.52
2019-02-16T11:39:51.828Z,101744.02
2019-02-16T11:42:39.472Z,101747.02
2019-02-16T11:45:27.189Z,101746.67
2019-02-16T11:48:14.871Z,101739.59
2019-02-16T11:50:49.240Z,101745.98
2019-02-16T11:53:36.878Z,101736.28
2019-02-16T11:56:24.516Z,101738.63
2019-02-16T11:59:12.152Z,101736.77
2019-02-16T12:01:59.825Z,101728.63
2019-02-16T12:04:47.442Z,101729.06
2019-02-16T12:07:35.090Z,101725.45
2019-02-16T12:10:22.889Z,101720.83
2019-02-16T12:13:10.526Z,101717.34
2019-02-16T12:15:59.945Z,101706.37
2019-02-16T12:18:47.593Z,101701.73
2019-02-16T12:21:35.213Z,101699.61
2019-02-16T12:24:19.821Z,101701.24
2019-02-16T12:27:07.442Z,101699.27
2019-02-16T12:29:55.099Z,101693.77
2019-02-16T12:32:42.731Z,101695.30
2019-02-16T12:35:30.341Z,101685.55
2019-02-16T12:38:17.996Z,101683.25
2019-02-16T12:41:05.637Z,101676.59
2019-02-16T12:43:42.092Z,101677.91
2019-02-16T12:46:16.850Z,101676.75
2019-02-16T12:49:04.482Z,101668.16
2019-02-16T12:51:52.096Z,101658.47
2019-02-16T12:54:39.727Z,101658.31
2019-02-16T12:57:27.355Z,101651.13
2019-02-16T13:00:14.983Z,101647.99
2019-02-16T13:02:57.942Z,101642.77
2019-02-16T13:05:45.561Z,101640.63
2019-02-16T13:08:31.065Z,101636.10
2019-02-16T13:11:18.833Z,101635.12
2019-02-16T13:14:06.454Z,101640.66
2019-02-16T13:16:54.074Z,101636.48
2019-02-16T13:19:41.760Z,101630.80
2019-02-16T13:22:29.382Z,101632.95
2019-02-16T13:25:04.233Z,101630.28
2019-02-16T13:27:51.907Z,101628.30
2019-02-16T13:30:39.565Z,101630.13
2019-02-16T13:33:27.275Z,101623.94
2019-02-16T13:36:14.909Z,101622.59
2019-02-16T13:38:49.665Z,101625.45
2019-02-16T13:41:24.934Z,101618.58
2019-02-16T13:44:07.505Z,101622.40
2019-02-16T13:46:46.454Z,101620.41
2019-02-16T13:49:34.202Z,101618.06
2019-02-16T13:52:21.834Z,101613.85
2019-02-16T13:55:11.091Z,101613.84
2019-02-16T13:57:58.894Z,101609.29
2019-02-16T14:00:46.552Z,101609.97
2019-02-16T14:03:34.187Z,101605.78
2019-02-16T14:06:21.839Z,101610.59
2019-02-16T14:09:09.445Z,101605.17
2019-02-16T14:11:57.067Z,101601.73
2019-02-16T14:14:44.690Z,101602.52
2019-02-16T14:17:32.331Z,101600.36
2019-02-16T14:20:01.039Z,101593.70
2019-02-16T14:22:29.661Z,101603.39
2019-02-16T14:25:00.514Z,101592.83
2019-02-16T14:27:29.140Z,101595.31
2019-02-16T14:29:57.740Z,101598.64
2019-02-16T14:32:26.373Z,101595.45
2019-02-16T14:34:54.989Z,101599.61
2019-02-16T14:37:42.663Z,101597.95
2019-02-16T14:40:11.308Z,101600.32
2019-02-16T14:42:39.924Z,101597.98
2019-02-16T14:45:10.083Z,101595.64
2019-02-16T14:47:39.022Z,101591.89
2019-02-16T14:50:08.345Z,101591.09
2019-02-16T14:52:36.989Z,101589.73
2019-02-16T14:55:06.875Z,101592.94
2019-02-16T14:57:35.509Z,101588.92
2019-02-16T15:00:04.471Z,101587.39
2019-02-16T15:02:33.107Z,101583.05
2019-02-16T15:05:01.742Z,101589.27
2019-02-16T15:07:30.398Z,101586.79
2019-02-16T15:09:59.029Z,101583.28
2019-02-16T15:12:27.653Z,101581.92
2019-02-16T15:14:56.277Z,101573.37
2019-02-16T15:17:25.507Z,101573.98
2019-02-16T15:19:54.422Z,101578.05
2019-02-16T15:22:23.895Z,101570.32
2019-02-16T15:24:52.917Z,101566.15
2019-02-16T15:27:21.878Z,101567.16
2019-02-16T15:29:50.872Z,101567.34
2019-02-16T15:32:38.852Z,101572.05
2019-02-16T15:41:37.694Z,101558.88
2019-02-16T15:44:06.495Z,101564.61
2019-02-16T15:46:35.341Z,101565.27
2019-02-16T15:49:04.159Z,101555.92
2019-02-16T15:51:32.964Z,101557.61
2019-02-16T15:54:02.376Z,101548.23
2019-02-16T15:56:31.171Z,101550.11
2019-02-16T15:59:00.093Z,101553.42
2019-02-16T16:01:48.751Z,101548.06
2019-02-16T16:04:21.728Z,101548.61
2019-02-16T16:06:50.483Z,101547.42
2019-02-16T16:09:38.731Z,101557.66
2019-02-16T16:12:26.455Z,101559.51
2019-02-16T16:15:00.093Z,101555.66
2019-02-16T16:17:35.872Z,101552.32
2019-02-16T16:20:23.789Z,101553.50
2019-02-16T16:22:59.747Z,101554.84
2019-02-16T16:25:47.399Z,101548.34
2019-02-16T16:28:35.003Z,101546.83
2019-02-16T16:31:22.632Z,101550.34
2019-02-16T16:34:10.287Z,101554.83
2019-02-16T16:36:57.933Z,101550.27
2019-02-16T16:39:45.556Z,101559.61
2019-02-16T16:42:33.200Z,101553.55
2019-02-16T16:45:20.828Z,101549.16
2019-02-16T16:48:08.440Z,101554.75
2019-02-16T16:50:56.052Z,101557.70
2019-02-16T16:53:43.674Z,101558.30
2019-02-16T16:56:31.321Z,101551.91
2019-02-16T16:59:18.946Z,101550.14
2019-02-16T17:02:06.573Z,101557.37
2019-02-16T17:04:54.272Z,101559.27
2019-02-16T17:07:30.056Z,101568.11
2019-02-16T17:10:17.672Z,101560.20
2019-02-16T17:13:05.357Z,101570.64
2019-02-16T17:15:52.984Z,101572.09
2019-02-16T17:18:40.688Z,101572.14
2019-02-16T17:21:28.325Z,101568.23
2019-02-16T17:24:15.949Z,101569.67
2019-02-16T17:27:03.669Z,101572.50
2019-02-16T17:29:51.290Z,101568.38
2019-02-16T17:32:38.915Z,101575.79
2019-02-16T17:35:25.479Z,101569.68
2019-02-16T17:37:59.911Z,101575.63
2019-02-16T17:40:47.551Z,101572.31
2019-02-16T17:43:35.169Z,101570.19
2019-02-16T17:46:22.812Z,101567.95
2019-02-16T17:49:10.479Z,101570.12
2019-02-16T17:51:58.120Z,101573.63
2019-02-16T17:54:34.529Z,101574.30
2019-02-16T17:57:22.203Z,101573.87
2019-02-16T18:00:09.826Z,101578.03
2019-02-16T18:02:57.516Z,101572.35
2019-02-16T18:05:45.192Z,101564.25
2019-02-16T18:08:33.102Z,101574.27
2019-02-16T18:11:20.827Z,101570.96
2019-02-16T18:14:08.447Z,101568.95
2019-02-16T18:16:44.004Z,101576.48
2019-02-16T18:19:21.691Z,101579.88
2019-02-16T18:22:09.313Z,101571.58
2019-02-16T18:24:56.943Z,101575.75
2019-02-16T18:27:44.599Z,101570.25
2019-02-16T18:30:32.358Z,101564.42
2019-02-16T18:33:10.136Z,101568.88
2019-02-16T18:35:57.830Z,101567.56
2019-02-16T18:38:32.101Z,101570.48
2019-02-16T18:41:19.737Z,101564.81
2019-02-16T18:44:07.347Z,101558.03
2019-02-16T18:46:54.965Z,101558.73
2019-02-16T18:49:42.586Z,101559.87
2019-02-16T18:52:30.315Z,101552.42
2019-02-16T18:55:17.936Z,101548.30
2019-02-16T18:58:05.676Z,101542.28
2019-02-16T19:00:53.317Z,101542.40
2019-02-16T19:03:40.993Z,101539.52
2019-02-16T19:06:28.656Z,101540.67
2019-02-16T19:09:16.316Z,101539.23
2019-02-16T19:12:04.048Z,101536.25
2019-02-16T19:14:51.699Z,101544.72
2019-02-16T19:17:39.330Z,101549.08
2019-02-16T19:20:27.702Z,101549.52
2019-02-16T19:23:15.339Z,101556.13
2019-02-16T19:26:02.974Z,101551.78
2019-02-16T19:28:50.676Z,101547.47
2019-02-16T19:31:38.359Z,101554.05
2019-02-16T19:34:26.001Z,101554.11
2019-02-16T19:37:13.614Z,101547.05
2019-02-16T19:40:01.256Z,101547.37
2019-02-16T19:45:37.923Z,101553.24
2019-02-16T19:48:25.564Z,101549.03
2019-02-16T19:51:13.201Z,101547.47
2019-02-16T19:54:00.834Z,101546.14
2019-02-16T19:56:48.538Z,101544.05
2019-02-16T19:59:36.183Z,101549.59
2019-02-16T20:02:23.889Z,101544.06
2019-02-16T20:05:11.559Z,101548.74
2019-02-16T20:07:59.177Z,101545.59
2019-02-16T20:10:46.829Z,101546.70
2019-02-16T20:13:34.562Z,101547.09
2019-02-16T20:16:22.280Z,101544.81
2019-02-16T20:19:10.190Z,101551.92
2019-02-16T20:21:57.871Z,101550.41
2019-02-16T20:24:45.860Z,101545.60
2019-02-16T20:27:21.365Z,101548.61
2019-02-16T20:30:09.514Z,101541.66
2019-02-16T20:32:57.331Z,101540.67
2019-02-16T20:35:37.235Z,101547.77
2019-02-16T20:38:24.946Z,101543.82
2019-02-16T20:41:12.596Z,101545.37
2019-02-16T20:44:00.500Z,101545.37
2019-02-16T20:46:50.352Z,101548.26
2019-02-16T20:49:40.374Z,101545.75
2019-02-16T20:52:28.044Z,101546.83
2019-02-16T20:55:15.751Z,101547.16
2019-02-16T20:57:51.162Z,101548.59
2019-02-16T21:00:38.938Z,101552.90
2019-02-16T21:03:26.597Z,101547.02
2019-02-16T21:06:35.074Z,101546.17
2019-02-16T21:12:14.384Z,101549.41
2019-02-16T21:15:02.220Z,101559.08
2019-02-16T21:17:51.767Z,101561.06
2019-02-16T21:20:39.967Z,101554.14
2019-02-16T21:23:27.787Z,101553.59
2019-02-16T21:26:15.492Z,101550.73
2019-02-16T21:29:03.193Z,101552.61
2019-02-16T21:31:50.904Z,101557.41
2019-02-16T21:34:38.780Z,101553.20
2019-02-16T21:37:45.642Z,101556.18
2019-02-16T21:43:37.368Z,101562.77
2019-02-16T21:46:25.104Z,101555.88
2019-02-16T21:49:03.233Z,101557.12
2019-02-16T21:51:50.942Z,101546.65
2019-02-16T21:54:35.030Z,101546.08
2019-02-16T21:57:22.974Z,101550.67
2019-02-16T22:03:14.655Z,101541.26
2019-02-16T22:06:02.433Z,101537.29
2019-02-16T22:08:50.317Z,101537.41
2019-02-16T22:11:38.111Z,101532.72
2019-02-16T22:14:06.991Z,101528.42
2019-02-16T22:16:35.695Z,101533.96
2019-02-16T22:19:04.482Z,101534.43
2019-02-16T22:21:33.264Z,101534.63
2019-02-16T22:24:02.746Z,101536.34
2019-02-16T22:26:31.754Z,101537.20
2019-02-16T22:29:00.556Z,101532.16
2019-02-16T22:31:29.767Z,101535.89
2019-02-16T22:34:01.538Z,101534.92
2019-02-16T22:36:30.303Z,101536.80
2019-02-16T22:38:59.030Z,101538.79
2019-02-16T22:41:27.861Z,101543.59
2019-02-16T22:43:56.540Z,101552.77
2019-02-16T22:46:25.523Z,101544.81
2019-02-16T22:48:54.243Z,101542.06
2019-02-16T22:51:22.963Z,101542.36
2019-02-16T22:54:10.855Z,101540.88
2019-02-16T22:56:39.639Z,101546.84
2019-02-16T22:59:08.681Z,101546.05
2019-02-16T23:02:17.227Z,101542.95
2019-02-16T23:04:46.170Z,101548.16
2019-02-16T23:07:14.868Z,101545.78
2019-02-16T23:09:43.932Z,101544.70
2019-02-16T23:12:16.293Z,101543.31
2019-02-16T23:14:45.501Z,101543.34
2019-02-16T23:17:14.241Z,101543.77
2019-02-16T23:19:43.163Z,101540.17
2019-02-16T23:22:31.353Z,101534.20
2019-02-16T23:25:33.667Z,101540.28
2019-02-16T23:28:02.533Z,101536.84
2019-02-16T23:30:31.765Z,101540.98
2019-02-16T23:33:00.929Z,101538.97
2019-02-16T23:35:29.809Z,101542.98
2019-02-16T23:37:59.491Z,101533.36
2019-02-16T23:40:28.391Z,101529.41
2019-02-16T23:48:08.686Z,101519.49
2019-02-16T23:50:37.713Z,101522.97
2019-02-16T23:53:06.808Z,101522.67
2019-02-16T23:55:54.921Z,101513.65
2019-02-16T23:58:24.142Z,101516.91
